createdAt,value
2017-09-17T00:01:53.309Z,29.90
2017-09-17T00:04:30.629Z,27.40
2017-09-17T00:06:57.869Z,21.37
2017-09-17T00:09:27.355Z,26.00
2017-09-17T00:11:53.574Z,25.87
2017-09-17T00:14:23.678Z,21.60
2017-09-17T00:16:51.233Z,25.47
2017-09-17T00:19:19.122Z,29.60
2017-09-17T00:24:24.486Z,26.17
2017-09-17T00:26:53.738Z,24.07
2017-09-17T00:29:20.710Z,17.60
2017-09-17T00:31:55.313Z,19.23
2017-09-17T00:34:21.544Z,21.57
2017-09-17T00:36:50.477Z,20.20
2017-09-17T00:39:17.481Z,19.03
2017-09-17T00:41:43.711Z,15.83
2017-09-17T00:44:13.279Z,22.87
2017-09-17T00:46:39.570Z,17.40
2017-09-17T00:49:08.501Z,13.83
2017-09-17T00:51:35.303Z,17.50
2017-09-17T00:54:04.854Z,14.87
2017-09-17T00:56:33.522Z,15.07
2017-09-17T00:59:05.771Z,14.23
2017-09-17T01:01:32.098Z,13.60
2017-09-17T01:04:00.928Z,16.60
2017-09-17T01:06:29.302Z,14.10
2017-09-17T01:08:56.402Z,15.80
2017-09-17T01:11:23.811Z,14.90
2017-09-17T01:13:55.338Z,15.60
2017-09-17T01:16:22.030Z,15.37
2017-09-17T01:18:50.501Z,17.20
2017-09-17T01:21:17.546Z,14.23
2017-09-17T01:23:46.785Z,16.60
2017-09-17T01:28:45.086Z,14.70
2017-09-17T01:31:12.058Z,15.03
2017-09-17T01:33:38.286Z,14.20
2017-09-17T01:36:08.470Z,16.13
2017-09-17T01:38:37.722Z,14.00
2017-09-17T01:41:05.771Z,14.53
2017-09-17T01:43:32.748Z,15.00
2017-09-17T01:45:59.078Z,12.60
2017-09-17T01:48:25.300Z,45.43
2017-09-17T01:50:52.467Z,63.70
2017-09-17T01:53:18.689Z,44.47
2017-09-17T01:55:45.280Z,29.63
2017-09-17T01:58:11.944Z,18.90
2017-09-17T02:00:38.910Z,15.17
2017-09-17T02:03:05.243Z,12.27
2017-09-17T02:05:32.394Z,13.50
2017-09-17T02:08:02.327Z,13.37
2017-09-17T02:10:28.720Z,14.23
2017-09-17T02:12:55.790Z,17.63
2017-09-17T02:15:22.882Z,13.70
2017-09-17T02:17:49.256Z,20.10
2017-09-17T02:20:15.611Z,18.33
2017-09-17T02:22:43.084Z,14.60
2017-09-17T02:25:09.421Z,13.30
2017-09-17T02:27:35.724Z,16.07
2017-09-17T02:30:02.285Z,14.20
2017-09-17T02:32:28.646Z,14.50
2017-09-17T02:34:55.068Z,12.83
2017-09-17T02:37:22.177Z,12.67
2017-09-17T02:39:48.523Z,14.10
2017-09-17T02:42:14.980Z,13.43
2017-09-17T02:44:41.443Z,12.70
2017-09-17T02:47:08.546Z,12.37
2017-09-17T02:49:35.518Z,14.17
2017-09-17T02:52:01.774Z,16.60
2017-09-17T02:54:28.142Z,12.57
2017-09-17T02:56:55.314Z,12.03
2017-09-17T02:59:21.772Z,13.80
2017-09-17T03:01:48.170Z,14.93
2017-09-17T03:04:14.478Z,13.53
2017-09-17T03:06:40.718Z,13.57
2017-09-17T03:09:06.997Z,12.80
2017-09-17T03:11:34.162Z,14.00
2017-09-17T03:14:00.521Z,18.00
2017-09-17T03:16:26.858Z,15.30
2017-09-17T03:18:53.190Z,13.37
2017-09-17T03:21:20.255Z,15.80
2017-09-17T03:23:47.340Z,13.43
2017-09-17T03:26:13.789Z,14.37
2017-09-17T03:28:40.273Z,12.37
2017-09-17T03:31:06.670Z,11.47
2017-09-17T03:33:32.992Z,12.10
2017-09-17T03:35:59.291Z,12.10
2017-09-17T03:38:25.641Z,12.07
2017-09-17T03:40:52.007Z,11.80
2017-09-17T03:43:18.259Z,12.20
2017-09-17T03:45:44.503Z,12.00
2017-09-17T03:48:10.783Z,11.80
2017-09-17T03:50:37.030Z,11.40
2017-09-17T03:53:03.262Z,12.37
2017-09-17T03:55:29.508Z,14.50
2017-09-17T03:57:56.790Z,11.30
2017-09-17T04:00:24.807Z,18.80
2017-09-17T04:02:51.065Z,11.87
2017-09-17T04:05:17.306Z,11.50
2017-09-17T04:07:43.523Z,12.03
2017-09-17T04:10:09.778Z,14.00
2017-09-17T04:12:36.047Z,17.90
2017-09-17T04:15:02.414Z,14.40
2017-09-17T04:17:28.718Z,11.87
2017-09-17T04:19:56.333Z,12.63
2017-09-17T04:22:22.574Z,11.47
2017-09-17T04:24:48.889Z,11.67
2017-09-17T04:27:15.110Z,10.40
2017-09-17T04:29:41.329Z,11.87
2017-09-17T04:32:07.560Z,10.30
2017-09-17T04:34:33.772Z,13.00
2017-09-17T04:37:00.722Z,14.50
2017-09-17T04:39:26.962Z,11.17
2017-09-17T04:41:53.303Z,15.33
2017-09-17T04:44:20.346Z,10.40
2017-09-17T04:46:46.572Z,10.30
2017-09-17T04:49:12.803Z,10.07
2017-09-17T04:51:40.086Z,11.43
2017-09-17T04:54:06.317Z,14.90
2017-09-17T04:56:33.394Z,12.73
2017-09-17T04:58:59.757Z,10.97
2017-09-17T05:01:26.183Z,11.87
2017-09-17T05:03:53.310Z,11.73
2017-09-17T05:06:19.570Z,11.17
2017-09-17T05:08:46.639Z,11.33
2017-09-17T05:11:14.518Z,10.77
2017-09-17T05:13:40.742Z,11.30
2017-09-17T05:16:06.987Z,10.50
2017-09-17T05:18:33.201Z,11.13
2017-09-17T05:20:59.424Z,12.17
2017-09-17T05:23:25.666Z,10.97
2017-09-17T05:25:51.889Z,11.00
2017-09-17T05:28:18.850Z,11.07
2017-09-17T05:30:45.180Z,13.70
2017-09-17T05:33:11.567Z,12.90
2017-09-17T05:35:37.799Z,11.93
2017-09-17T05:38:04.049Z,12.87
2017-09-17T05:40:31.010Z,11.17
2017-09-17T05:42:57.286Z,9.57
2017-09-17T05:45:23.518Z,9.53
2017-09-17T05:47:49.746Z,11.40
2017-09-17T05:50:15.978Z,10.87
2017-09-17T05:52:42.206Z,11.83
2017-09-17T05:55:08.435Z,12.43
2017-09-17T05:57:34.662Z,11.13
2017-09-17T06:00:01.094Z,10.70
2017-09-17T06:02:27.648Z,10.50
2017-09-17T06:04:53.886Z,10.83
2017-09-17T06:07:20.168Z,10.00
2017-09-17T06:09:46.424Z,11.50
2017-09-17T06:12:12.650Z,10.87
2017-09-17T06:14:38.900Z,11.20
2017-09-17T06:17:05.124Z,10.80
2017-09-17T06:19:31.357Z,11.70
2017-09-17T06:21:58.607Z,9.73
2017-09-17T06:24:24.838Z,10.60
2017-09-17T06:26:51.078Z,9.90
2017-09-17T06:29:17.313Z,11.33
2017-09-17T06:31:43.543Z,13.37
2017-09-17T06:34:09.787Z,10.40
2017-09-17T06:36:36.038Z,10.63
2017-09-17T06:39:02.270Z,10.20
2017-09-17T06:41:29.262Z,12.23
2017-09-17T06:43:55.526Z,10.17
2017-09-17T06:46:21.758Z,11.80
2017-09-17T06:48:47.997Z,11.23
2017-09-17T06:51:14.302Z,11.40
2017-09-17T06:53:40.535Z,11.50
2017-09-17T06:56:06.782Z,13.47
2017-09-17T06:58:34.217Z,10.97
2017-09-17T07:01:00.541Z,11.90
2017-09-17T07:03:26.934Z,10.30
2017-09-17T07:05:53.932Z,12.97
2017-09-17T07:08:20.178Z,15.73
2017-09-17T07:10:46.407Z,12.57
2017-09-17T07:13:12.652Z,15.70
2017-09-17T07:15:38.908Z,11.37
2017-09-17T07:18:05.121Z,14.53
2017-09-17T07:20:32.266Z,16.90
2017-09-17T07:22:58.506Z,14.83
2017-09-17T07:25:24.790Z,18.87
2017-09-17T07:27:51.052Z,17.53
2017-09-17T07:30:17.276Z,18.33
2017-09-17T07:32:43.492Z,17.23
2017-09-17T07:35:10.750Z,18.43
2017-09-17T07:37:37.018Z,20.03
2017-09-17T07:40:03.254Z,19.80
2017-09-17T07:42:29.501Z,14.00
2017-09-17T07:44:56.467Z,13.57
2017-09-17T07:47:22.690Z,20.33
2017-09-17T07:49:49.666Z,15.10
2017-09-17T07:52:15.890Z,12.10
2017-09-17T07:54:42.094Z,22.40
2017-09-17T07:57:09.097Z,11.87
2017-09-17T07:59:35.366Z,13.17
2017-09-17T08:02:02.422Z,12.20
2017-09-17T08:04:28.871Z,9.87
2017-09-17T08:06:55.838Z,13.63
2017-09-17T08:09:22.787Z,14.00
2017-09-17T08:11:49.022Z,16.73
2017-09-17T08:14:15.277Z,13.53
2017-09-17T08:16:41.494Z,23.53
2017-09-17T08:19:07.750Z,13.80
2017-09-17T08:21:34.002Z,12.00
2017-09-17T08:24:00.237Z,17.80
2017-09-17T08:26:26.498Z,10.80
2017-09-17T08:28:52.720Z,10.03
2017-09-17T08:31:18.950Z,10.50
2017-09-17T08:33:45.963Z,10.47
2017-09-17T08:36:12.959Z,11.37
2017-09-17T08:38:39.179Z,13.73
2017-09-17T08:41:05.436Z,19.07
2017-09-17T08:43:33.163Z,26.60
2017-09-17T08:45:59.414Z,20.17
2017-09-17T08:48:25.641Z,23.90
2017-09-17T08:50:53.182Z,22.20
2017-09-17T08:53:19.762Z,21.00
2017-09-17T08:55:46.924Z,19.20
2017-09-17T08:58:14.367Z,16.70
2017-09-17T09:00:40.826Z,16.23
2017-09-17T09:03:08.086Z,18.60
2017-09-17T09:05:34.712Z,18.10
2017-09-17T09:08:01.140Z,15.80
2017-09-17T09:10:27.484Z,11.80
2017-09-17T09:12:53.964Z,11.93
2017-09-17T09:15:20.201Z,18.30
2017-09-17T09:17:46.475Z,15.00
2017-09-17T09:20:13.502Z,16.10
2017-09-17T09:22:40.005Z,13.07
2017-09-17T09:25:06.259Z,14.30
2017-09-17T09:27:33.206Z,13.83
2017-09-17T09:30:01.789Z,14.13
2017-09-17T09:32:28.770Z,18.10
2017-09-17T09:34:55.010Z,14.60
2017-09-17T09:37:21.238Z,17.47
2017-09-17T09:39:47.509Z,19.07
2017-09-17T09:42:14.094Z,21.90
2017-09-17T09:44:41.193Z,20.27
2017-09-17T09:47:07.478Z,17.63
2017-09-17T09:49:33.814Z,21.73
2017-09-17T09:52:00.066Z,14.03
2017-09-17T09:54:26.332Z,16.00
2017-09-17T09:56:52.579Z,18.50
2017-09-17T09:59:19.579Z,17.50
2017-09-17T10:01:45.882Z,17.77
2017-09-17T10:04:21.739Z,12.70
2017-09-17T10:06:48.947Z,20.03
2017-09-17T10:09:15.191Z,12.93
2017-09-17T10:11:41.471Z,16.30
2017-09-17T10:14:07.783Z,14.43
2017-09-17T10:16:34.742Z,15.20
2017-09-17T10:19:00.969Z,14.10
2017-09-17T10:21:29.182Z,12.07
2017-09-17T10:23:55.403Z,12.27
2017-09-17T10:26:30.167Z,9.50
2017-09-17T10:28:56.407Z,9.30
2017-09-17T10:31:23.378Z,12.50
2017-09-17T10:33:49.652Z,10.50
2017-09-17T10:36:15.894Z,8.23
2017-09-17T10:38:42.107Z,9.57
2017-09-17T10:41:08.353Z,15.80
2017-09-17T10:43:34.630Z,9.10
2017-09-17T10:46:01.685Z,8.93
2017-09-17T10:51:00.189Z,11.23
2017-09-17T10:53:28.943Z,15.50
2017-09-17T10:55:58.730Z,12.77
2017-09-17T10:58:25.902Z,15.33
2017-09-17T11:00:52.126Z,13.53
2017-09-17T11:03:18.385Z,12.07
2017-09-17T11:05:46.558Z,12.27
2017-09-17T11:08:12.978Z,11.37
2017-09-17T11:13:35.030Z,9.20
2017-09-17T11:16:04.615Z,10.73
2017-09-17T11:18:33.284Z,7.67
2017-09-17T11:21:01.944Z,11.10
2017-09-17T11:23:38.047Z,9.27
2017-09-17T11:26:05.287Z,9.43
2017-09-17T11:28:31.634Z,8.13
2017-09-17T11:31:07.047Z,8.93
2017-09-17T11:33:34.016Z,8.63
2017-09-17T11:38:36.514Z,7.23
2017-09-17T11:41:11.524Z,6.17
2017-09-17T11:43:47.951Z,6.80
2017-09-17T11:46:18.825Z,4.50
2017-09-17T11:48:55.341Z,7.40
2017-09-17T11:51:21.576Z,5.50
2017-09-17T11:53:51.767Z,7.07
2017-09-17T11:56:18.730Z,10.23
2017-09-17T11:58:45.876Z,3.70
2017-09-17T12:01:13.150Z,6.70
2017-09-17T12:03:39.425Z,2.07
2017-09-17T12:06:07.550Z,1.50
2017-09-17T12:08:33.954Z,1.00
2017-09-17T12:11:00.209Z,1.60
2017-09-17T12:13:26.443Z,1.30
2017-09-17T12:15:52.677Z,1.83
2017-09-17T12:18:18.900Z,2.17
2017-09-17T12:20:45.118Z,4.27
2017-09-17T12:23:12.090Z,1.57
2017-09-17T12:25:38.355Z,3.47
2017-09-17T12:28:04.601Z,2.80
2017-09-17T12:30:30.842Z,2.23
2017-09-17T12:32:57.071Z,4.03
2017-09-17T12:35:23.318Z,2.40
2017-09-17T12:37:50.291Z,2.30
2017-09-17T12:40:16.537Z,2.37
2017-09-17T12:42:42.757Z,3.27
2017-09-17T12:45:09.518Z,3.20
2017-09-17T12:47:36.127Z,5.23
2017-09-17T12:50:02.406Z,3.50
2017-09-17T12:52:28.625Z,4.40
2017-09-17T12:54:55.915Z,6.57
2017-09-17T12:57:26.400Z,7.60
2017-09-17T13:00:11.685Z,6.40
2017-09-17T13:02:48.110Z,4.97
2017-09-17T13:05:34.203Z,5.63
2017-09-17T13:08:29.129Z,15.27
2017-09-17T13:11:04.992Z,8.00
2017-09-17T13:13:34.675Z,7.03
2017-09-17T13:16:24.153Z,6.00
2017-09-17T13:21:37.292Z,11.17
2017-09-17T13:27:59.190Z,22.10
2017-09-17T13:30:35.465Z,7.87
2017-09-17T13:33:01.790Z,12.77
2017-09-17T13:35:28.030Z,2.83
2017-09-17T13:37:54.410Z,2.33
2017-09-17T13:40:23.090Z,2.50
2017-09-17T13:42:49.554Z,2.70
2017-09-17T13:45:15.973Z,49.43
2017-09-17T13:47:43.798Z,19.13
2017-09-17T13:50:13.075Z,9.70
2017-09-17T13:52:40.511Z,5.53
2017-09-17T13:55:07.534Z,3.90
2017-09-17T13:57:34.795Z,6.10
2017-09-17T14:00:02.576Z,7.17
2017-09-17T14:02:37.848Z,4.23
2017-09-17T14:07:44.778Z,4.43
2017-09-17T14:10:13.709Z,5.00
2017-09-17T14:12:41.032Z,3.53
2017-09-17T14:15:08.353Z,4.00
2017-09-17T14:17:37.227Z,4.10
2017-09-17T14:20:06.608Z,5.87
2017-09-17T14:22:44.695Z,59.37
2017-09-17T14:25:28.941Z,56.07
2017-09-17T14:28:02.428Z,33.67
2017-09-17T14:30:40.779Z,7.53
2017-09-17T14:33:09.098Z,5.47
2017-09-17T14:35:37.115Z,6.17
2017-09-17T14:38:03.346Z,4.57
2017-09-17T14:40:31.995Z,8.53
2017-09-17T14:43:00.487Z,4.40
2017-09-17T14:45:26.727Z,22.03
2017-09-17T14:47:52.965Z,34.93
2017-09-17T14:50:22.137Z,21.53
2017-09-17T14:52:48.958Z,11.33
2017-09-17T14:55:20.018Z,10.13
2017-09-17T14:57:47.038Z,9.00
2017-09-17T15:00:17.178Z,26.43
2017-09-17T15:02:45.137Z,14.30
2017-09-17T15:05:13.562Z,9.47
2017-09-17T15:07:50.450Z,9.30
2017-09-17T15:10:17.520Z,11.03
2017-09-17T15:12:48.790Z,10.00
2017-09-17T15:15:19.911Z,8.43
2017-09-17T15:17:47.411Z,8.97
2017-09-17T15:20:14.417Z,10.77
2017-09-17T15:22:43.698Z,8.07
2017-09-17T15:25:14.310Z,24.53
2017-09-17T15:27:40.722Z,12.90
2017-09-17T15:30:08.462Z,9.27
2017-09-17T15:32:37.438Z,14.60
2017-09-17T15:35:03.652Z,11.37
2017-09-17T15:37:30.854Z,7.00
2017-09-17T15:39:59.076Z,7.60
2017-09-17T15:42:27.499Z,14.70
2017-09-17T15:44:55.916Z,12.90
2017-09-17T15:47:22.546Z,6.27
2017-09-17T15:49:51.682Z,5.13
2017-09-17T15:52:18.382Z,8.53
2017-09-17T15:54:45.903Z,6.83
2017-09-17T15:57:12.253Z,6.83
2017-09-17T15:59:39.261Z,5.47
2017-09-17T16:02:06.261Z,6.83
2017-09-17T16:04:36.602Z,8.70
2017-09-17T16:07:02.885Z,12.73
2017-09-17T16:09:44.915Z,86.67
2017-09-17T16:14:52.422Z,47.00
2017-09-17T16:17:18.664Z,22.97
2017-09-17T16:19:44.902Z,18.37
2017-09-17T16:22:11.175Z,16.03
2017-09-17T16:24:38.163Z,15.87
2017-09-17T16:27:04.403Z,12.37
2017-09-17T16:29:30.643Z,12.60
2017-09-17T16:31:56.894Z,9.47
2017-09-17T16:34:23.128Z,12.37
2017-09-17T16:36:49.370Z,9.13
2017-09-17T16:39:15.674Z,9.33
2017-09-17T16:41:43.098Z,12.43
2017-09-17T16:44:09.329Z,17.47
2017-09-17T16:46:35.615Z,11.47
2017-09-17T16:49:02.549Z,12.33
2017-09-17T16:51:28.779Z,16.20
2017-09-17T16:53:55.022Z,13.70
2017-09-17T16:56:21.256Z,17.63
2017-09-17T16:58:47.495Z,15.60
2017-09-17T17:01:14.494Z,16.90
2017-09-17T17:03:40.758Z,18.10
2017-09-17T17:06:06.970Z,23.17
2017-09-17T17:08:33.215Z,14.67
2017-09-17T17:10:59.458Z,11.87
2017-09-17T17:13:25.709Z,20.13
2017-09-17T17:15:52.269Z,13.87
2017-09-17T17:18:18.565Z,9.67
2017-09-17T17:20:45.585Z,10.53
2017-09-17T17:23:11.837Z,10.87
2017-09-17T17:25:38.107Z,10.43
2017-09-17T17:28:05.078Z,9.93
2017-09-17T17:30:31.465Z,10.30
2017-09-17T17:32:57.694Z,10.83
2017-09-17T17:35:24.687Z,11.40
2017-09-17T17:37:50.934Z,10.90
2017-09-17T17:40:17.239Z,11.67
2017-09-17T17:42:43.469Z,15.17
2017-09-17T17:45:09.886Z,17.97
2017-09-17T17:47:36.138Z,12.27
2017-09-17T17:50:02.438Z,11.03
2017-09-17T17:52:29.454Z,9.70
2017-09-17T17:54:55.694Z,11.53
2017-09-17T17:57:21.970Z,10.47
2017-09-17T17:59:48.250Z,13.77
2017-09-17T18:02:14.518Z,11.80
2017-09-17T18:04:41.524Z,13.53
2017-09-17T18:07:07.788Z,11.77
2017-09-17T18:09:34.031Z,10.73
2017-09-17T18:12:00.294Z,10.57
2017-09-17T18:14:26.533Z,11.90
2017-09-17T18:16:53.994Z,11.03
2017-09-17T18:19:20.262Z,11.90
2017-09-17T18:21:46.508Z,18.13
2017-09-17T18:24:12.785Z,11.60
2017-09-17T18:26:39.050Z,14.30
2017-09-17T18:29:05.352Z,12.10
2017-09-17T18:31:31.690Z,11.87
2017-09-17T18:33:57.960Z,13.77
2017-09-17T18:36:24.231Z,15.47
2017-09-17T18:38:51.210Z,13.50
2017-09-17T18:41:17.434Z,13.30
2017-09-17T18:43:43.670Z,12.13
2017-09-17T18:46:09.932Z,11.73
2017-09-17T18:48:36.192Z,12.60
2017-09-17T18:51:09.186Z,8.73
2017-09-17T18:53:36.172Z,10.10
2017-09-17T18:56:02.432Z,10.97
2017-09-17T18:58:28.678Z,11.87
2017-09-17T19:00:54.920Z,16.67
2017-09-17T19:03:21.909Z,13.87
2017-09-17T19:05:48.181Z,12.37
2017-09-17T19:08:16.504Z,12.10
2017-09-17T19:10:43.816Z,10.30
2017-09-17T19:13:10.090Z,12.37
2017-09-17T19:15:41.266Z,11.83
2017-09-17T19:18:07.936Z,9.63
2017-09-17T19:20:46.301Z,12.50
2017-09-17T19:23:12.522Z,10.03
2017-09-17T19:25:41.963Z,10.93
2017-09-17T19:28:09.798Z,14.40
2017-09-17T19:30:37.394Z,11.53
2017-09-17T19:33:03.615Z,10.40
2017-09-17T19:35:34.575Z,12.83
2017-09-17T19:38:00.814Z,10.20
2017-09-17T19:40:27.043Z,12.83
2017-09-17T19:42:53.327Z,11.17
2017-09-17T19:45:34.356Z,11.13
2017-09-17T19:48:15.586Z,11.50
2017-09-17T19:50:50.022Z,12.27
2017-09-17T19:53:16.332Z,12.23
2017-09-17T19:55:43.946Z,12.00
2017-09-17T19:58:20.931Z,14.83
2017-09-17T20:01:04.191Z,11.43
2017-09-17T20:03:33.203Z,10.50
2017-09-17T20:06:00.178Z,11.17
2017-09-17T20:08:27.815Z,11.27
2017-09-17T20:11:04.770Z,9.70
2017-09-17T20:13:31.182Z,7.33
2017-09-17T20:15:57.523Z,9.60
2017-09-17T20:18:28.146Z,10.93
2017-09-17T20:21:01.448Z,9.77
2017-09-17T20:23:39.163Z,10.00
2017-09-17T20:26:05.399Z,11.73
2017-09-17T20:28:35.256Z,11.10
2017-09-17T20:31:15.106Z,11.77
2017-09-17T20:33:42.160Z,13.43
2017-09-17T20:39:37.202Z,8.67
2017-09-17T20:42:38.990Z,8.30
2017-09-17T20:45:09.581Z,8.03
2017-09-17T20:47:46.503Z,9.83
2017-09-17T20:50:17.118Z,9.27
2017-09-17T20:52:43.628Z,8.80
2017-09-17T20:55:09.927Z,8.20
2017-09-17T20:57:36.150Z,8.47
2017-09-17T21:00:02.414Z,9.80
2017-09-17T21:02:29.387Z,8.83
2017-09-17T21:04:59.707Z,8.60
2017-09-17T21:07:26.092Z,8.37
2017-09-17T21:09:52.333Z,10.67
2017-09-17T21:12:20.003Z,7.23
2017-09-17T21:14:54.546Z,8.00
2017-09-17T21:17:21.921Z,9.47
2017-09-17T21:19:49.139Z,7.73
2017-09-17T21:22:15.408Z,7.80
2017-09-17T21:24:41.632Z,6.40
2017-09-17T21:27:15.846Z,5.90
2017-09-17T21:29:42.814Z,6.13
2017-09-17T21:32:09.034Z,6.00
2017-09-17T21:34:35.326Z,6.27
2017-09-17T21:37:01.579Z,4.07
2017-09-17T21:39:27.880Z,5.27
2017-09-17T21:41:54.435Z,5.53
2017-09-17T21:44:20.735Z,5.03
2017-09-17T21:46:47.866Z,6.70
2017-09-17T21:49:14.114Z,5.10
2017-09-17T21:51:40.469Z,6.23
2017-09-17T21:54:06.916Z,5.23
2017-09-17T21:56:33.174Z,5.20
2017-09-17T21:58:59.560Z,6.13
2017-09-17T22:01:25.795Z,6.83
2017-09-17T22:03:52.053Z,5.93
2017-09-17T22:06:18.295Z,5.80
2017-09-17T22:08:44.522Z,6.17
2017-09-17T22:11:11.628Z,6.10
2017-09-17T22:13:37.855Z,6.77
2017-09-17T22:16:04.078Z,6.70
2017-09-17T22:18:32.838Z,5.60
2017-09-17T22:20:59.935Z,5.87
2017-09-17T22:23:26.298Z,10.90
2017-09-17T22:25:52.947Z,6.63
2017-09-17T22:31:10.411Z,6.80
2017-09-17T22:33:37.370Z,5.70
2017-09-17T22:36:03.602Z,6.00
2017-09-17T22:38:29.846Z,5.87
2017-09-17T22:40:56.089Z,6.90
2017-09-17T22:43:22.298Z,8.57
2017-09-17T22:45:48.562Z,6.10
2017-09-17T22:48:14.824Z,7.13
2017-09-17T22:50:41.058Z,6.70
2017-09-17T22:53:10.113Z,4.87
2017-09-17T22:55:36.490Z,5.83
2017-09-17T22:58:02.957Z,5.77
2017-09-17T23:00:30.485Z,4.70
2017-09-17T23:02:58.528Z,6.30
2017-09-17T23:05:24.721Z,4.83
2017-09-17T23:07:51.684Z,7.33
2017-09-17T23:10:18.053Z,5.97
2017-09-17T23:12:44.257Z,5.57
2017-09-17T23:15:10.527Z,6.50
2017-09-17T23:17:36.761Z,5.00
2017-09-17T23:20:02.971Z,5.80
2017-09-17T23:22:29.465Z,5.13
2017-09-17T23:24:56.872Z,5.27
2017-09-17T23:27:23.106Z,7.47
2017-09-17T23:29:49.594Z,5.27
2017-09-17T23:32:15.980Z,5.47
2017-09-17T23:34:42.258Z,8.00
2017-09-17T23:37:08.729Z,6.43
2017-09-17T23:39:34.954Z,4.70
2017-09-17T23:42:01.441Z,4.93
2017-09-17T23:44:27.709Z,5.50
2017-09-17T23:46:54.124Z,4.60
2017-09-17T23:49:21.342Z,5.00
2017-09-17T23:51:48.781Z,6.00
2017-09-17T23:54:15.008Z,5.93
2017-09-17T23:56:41.238Z,5.63
2017-09-17T23:59:07.487Z,5.40
